createdAt,value
2022-09-02T00:02:05.141Z,16.8
2022-09-02T00:06:27.239Z,16.7
2022-09-02T00:11:33.607Z,16.6
2022-09-02T00:16:30.046Z,16.6
2022-09-02T00:21:46.537Z,16.5
2022-09-02T00:26:43.111Z,16.5
2022-09-02T00:31:59.816Z,16.4
2022-09-02T00:37:06.106Z,16.3
2022-09-02T00:42:12.477Z,16.3
2022-09-02T00:47:18.865Z,16.2
2022-09-02T00:52:15.236Z,16.1
2022-09-02T00:57:31.866Z,16.1
2022-09-02T01:02:38.213Z,16.0
2022-09-02T01:07:44.668Z,15.9
2022-09-02T01:12:51.044Z,15.9
2022-09-02T01:17:47.399Z,15.8
2022-09-02T01:23:03.808Z,15.8
2022-09-02T01:28:10.185Z,15.7
2022-09-02T01:33:16.574Z,15.7
2022-09-02T01:38:46.998Z,15.7
2022-09-02T01:43:29.331Z,15.6
2022-09-02T01:53:42.190Z,15.5
2022-09-02T02:09:01.476Z,15.4
2022-09-02T02:14:07.850Z,15.3
2022-09-02T02:19:04.206Z,15.3
2022-09-02T02:24:20.608Z,15.2
2022-09-02T02:29:16.982Z,15.2
2022-09-02T02:34:33.370Z,15.1
2022-09-02T02:39:39.748Z,15.1
2022-09-02T02:44:46.130Z,15.0
2022-09-02T02:49:52.536Z,15.0
2022-09-02T02:54:59.013Z,15.0
2022-09-02T03:00:05.399Z,14.9
2022-09-02T03:05:15.803Z,14.9
2022-09-02T03:10:18.178Z,14.9
2022-09-02T03:15:24.550Z,14.9
2022-09-02T03:20:50.964Z,14.9
2022-09-02T03:25:37.536Z,14.9
2022-09-02T03:30:58.235Z,14.9
2022-09-02T03:35:40.494Z,14.8
2022-09-02T03:41:00.884Z,14.8
2022-09-02T03:46:03.325Z,14.8
2022-09-02T03:56:16.002Z,14.8
2022-09-02T04:01:46.524Z,14.8
2022-09-02T04:06:18.758Z,14.8
2022-09-02T04:11:25.199Z,14.8
2022-09-02T04:16:55.710Z,14.7
2022-09-02T04:21:38.151Z,14.7
2022-09-02T04:26:44.812Z,14.7
2022-09-02T04:32:01.035Z,14.6
2022-09-02T04:37:07.410Z,14.6
2022-09-02T04:42:13.786Z,14.6
2022-09-02T04:47:10.144Z,14.5
2022-09-02T04:52:26.552Z,14.5
2022-09-02T04:57:22.907Z,14.4
2022-09-02T05:02:28.465Z,14.4
2022-09-02T05:07:45.674Z,14.4
2022-09-02T05:17:58.669Z,14.3
2022-09-02T05:23:05.159Z,14.3
2022-09-02T05:28:35.695Z,14.2
2022-09-02T05:33:08.001Z,14.2
2022-09-02T05:38:24.400Z,14.1
2022-09-02T05:43:20.823Z,14.1
2022-09-02T05:53:43.670Z,14.0
2022-09-02T05:58:54.061Z,14.0
2022-09-02T06:03:56.432Z,14.0
2022-09-02T06:09:26.856Z,14.0
2022-09-02T06:19:39.843Z,14.0
2022-09-02T06:24:22.242Z,14.0
2022-09-02T06:29:28.622Z,14.1
2022-09-02T06:34:59.047Z,14.1
2022-09-02T06:39:41.373Z,14.2
2022-09-02T06:44:47.758Z,14.3
2022-09-02T06:49:58.143Z,14.4
2022-09-02T06:55:00.503Z,14.4
2022-09-02T07:00:06.877Z,14.5
2022-09-02T07:05:13.281Z,14.6
2022-09-02T07:10:09.639Z,14.8
2022-09-02T07:15:15.016Z,14.9
2022-09-02T07:20:52.451Z,15.1
2022-09-02T07:25:38.811Z,15.2
2022-09-02T07:30:45.214Z,15.4
2022-09-02T07:36:25.632Z,16.5
2022-09-02T07:41:22.999Z,16.5
2022-09-02T07:46:39.480Z,17.5
2022-09-02T07:51:45.934Z,18.6
2022-09-02T07:56:52.333Z,19.8
2022-09-02T08:02:12.819Z,20.9
2022-09-02T08:07:05.101Z,22.0
2022-09-02T08:12:01.464Z,23.1
2022-09-02T08:17:17.877Z,24.1
2022-09-02T08:22:14.351Z,25.0
2022-09-02T08:27:50.923Z,26.0
2022-09-02T08:32:37.253Z,26.8
2022-09-02T08:37:33.614Z,27.6
2022-09-02T08:42:51.842Z,28.3
2022-09-02T08:47:56.378Z,29.1
2022-09-02T08:53:02.764Z,29.7
2022-09-02T08:58:33.209Z,30.4
2022-09-02T09:03:15.562Z,31.0
2022-09-02T09:08:41.971Z,31.6
2022-09-02T09:13:28.303Z,32.0
2022-09-02T09:18:34.859Z,32.5
2022-09-02T09:23:41.283Z,33.0
2022-09-02T09:28:37.829Z,33.5
2022-09-02T09:39:00.651Z,34.4
2022-09-02T09:44:07.095Z,34.9
2022-09-02T09:50:47.718Z,35.7
2022-09-02T10:00:25.394Z,36.1
2022-09-02T10:07:52.052Z,36.4
2022-09-02T10:10:14.128Z,36.7
2022-09-02T10:15:40.554Z,37.0
2022-09-02T10:25:33.323Z,37.5
2022-09-02T10:30:39.718Z,37.7
2022-09-02T10:36:06.243Z,38.0
2022-09-02T10:40:52.638Z,38.3
2022-09-02T10:45:58.978Z,38.5
2022-09-02T10:51:05.359Z,38.7
2022-09-02T10:56:35.775Z,38.9
2022-09-02T11:01:18.209Z,39.2
2022-09-02T11:07:04.092Z,39.4
2022-09-02T11:11:50.924Z,39.5
2022-09-02T11:16:27.507Z,39.7
2022-09-02T11:22:07.926Z,39.7
2022-09-02T11:26:50.469Z,40.0
2022-09-02T11:31:56.858Z,40.1
2022-09-02T11:37:03.254Z,40.4
2022-09-02T11:42:09.710Z,40.5
2022-09-02T11:47:16.026Z,40.6
2022-09-02T11:57:30.351Z,40.7
2022-09-02T12:02:36.895Z,40.7
2022-09-02T12:07:43.276Z,40.6
2022-09-02T12:12:51.829Z,40.5
2022-09-02T12:17:56.047Z,40.3
2022-09-02T12:23:02.421Z,39.4
2022-09-02T12:28:08.915Z,39.1
2022-09-02T12:33:15.424Z,38.8
2022-09-02T12:38:11.832Z,38.5
2022-09-02T12:43:17.169Z,38.2
2022-09-02T12:48:38.280Z,38.0
2022-09-02T12:53:40.952Z,37.6
2022-09-02T12:59:07.365Z,37.2
2022-09-02T13:04:07.850Z,36.7
2022-09-02T13:09:00.295Z,36.3
2022-09-02T13:14:06.791Z,35.8
2022-09-02T13:19:17.187Z,35.5
2022-09-02T13:37:09.695Z,34.2
2022-09-02T13:42:17.073Z,34.2
2022-09-02T13:47:23.450Z,34.0
2022-09-02T13:53:19.665Z,33.8
2022-09-02T13:57:35.241Z,33.6
2022-09-02T14:02:42.938Z,33.6
2022-09-02T14:07:49.167Z,33.4
2022-09-02T14:12:55.553Z,33.3
2022-09-02T14:18:01.934Z,33.1
2022-09-02T14:23:08.316Z,32.9
2022-09-02T14:28:14.696Z,32.7
2022-09-02T14:33:21.196Z,32.6
2022-09-02T14:38:27.584Z,32.4
2022-09-02T14:43:33.988Z,32.2
2022-09-02T14:48:40.360Z,32.0
2022-09-02T14:53:46.756Z,31.7
2022-09-02T14:58:53.122Z,31.5
2022-09-02T15:09:05.886Z,31.0
2022-09-02T15:14:12.362Z,30.9
2022-09-02T15:19:18.857Z,30.7
2022-09-02T15:24:15.212Z,30.4
2022-09-02T15:29:31.649Z,30.3
2022-09-02T15:34:38.030Z,30.1
2022-09-02T15:39:34.446Z,29.9
2022-09-02T15:44:50.803Z,29.7
2022-09-02T15:49:57.184Z,29.6
2022-09-02T15:54:53.566Z,29.4
2022-09-02T16:00:34.012Z,29.1
2022-09-02T16:05:16.346Z,29.0
2022-09-02T16:10:12.701Z,28.8
2022-09-02T16:15:19.093Z,28.6
2022-09-02T16:20:35.498Z,28.4
2022-09-02T16:25:41.875Z,28.2
2022-09-02T16:30:48.292Z,28.1
2022-09-02T16:35:44.612Z,27.9
2022-09-02T16:41:15.038Z,27.7
2022-09-02T16:46:07.489Z,27.6
2022-09-02T16:51:58.639Z,27.4
2022-09-02T16:56:20.287Z,27.2
2022-09-02T17:01:16.727Z,27.1
2022-09-02T17:06:33.049Z,26.8
2022-09-02T17:11:39.445Z,26.7
2022-09-02T17:16:45.923Z,26.5
2022-09-02T17:21:52.219Z,26.2
2022-09-02T17:26:58.594Z,26.0
2022-09-02T17:32:04.979Z,25.8
2022-09-02T17:37:11.477Z,25.7
2022-09-02T17:42:07.826Z,25.5
2022-09-02T17:47:24.225Z,25.3
2022-09-02T17:52:30.631Z,25.1
2022-09-02T17:57:41.780Z,24.9
2022-09-02T18:02:43.430Z,24.7
2022-09-02T18:07:50.771Z,24.6
2022-09-02T18:12:56.268Z,24.4
2022-09-02T18:18:02.733Z,24.2
2022-09-02T18:28:35.542Z,23.9
2022-09-02T18:38:28.265Z,23.5
2022-09-02T18:43:34.678Z,23.4
2022-09-02T18:48:41.104Z,23.2
2022-09-02T18:53:47.492Z,23.1
2022-09-02T18:58:53.874Z,23.0
2022-09-02T19:04:00.262Z,22.8
2022-09-02T19:09:06.641Z,22.7
2022-09-02T19:14:13.044Z,22.5
2022-09-02T19:19:43.625Z,22.4
2022-09-02T19:25:26.067Z,22.3
2022-09-02T19:29:32.331Z,22.1
2022-09-02T19:39:45.204Z,21.9
2022-09-02T19:44:51.661Z,21.7
2022-09-02T19:49:58.103Z,21.6
2022-09-02T19:55:04.484Z,21.5
2022-09-02T20:00:10.933Z,21.4
2022-09-02T20:05:17.259Z,21.3
2022-09-02T20:10:28.195Z,21.2
2022-09-02T20:15:20.023Z,21.1
2022-09-02T20:20:36.503Z,20.9
2022-09-02T20:25:43.010Z,20.9
2022-09-02T20:30:39.373Z,20.7
2022-09-02T20:35:55.871Z,20.6
2022-09-02T20:41:02.160Z,20.6
2022-09-02T20:46:28.737Z,20.4
2022-09-02T20:51:15.017Z,20.4
2022-09-02T20:56:21.435Z,20.3
2022-09-02T21:01:27.809Z,20.1
2022-09-02T21:06:38.195Z,20.1
2022-09-02T21:11:40.568Z,20.0
2022-09-02T21:16:37.005Z,19.9
2022-09-02T21:21:53.442Z,19.8
2022-09-02T21:26:49.914Z,19.7
2022-09-02T21:32:06.414Z,19.6
2022-09-02T21:37:02.769Z,19.5
2022-09-02T21:42:19.182Z,19.5
2022-09-02T21:47:45.625Z,19.4
2022-09-02T21:52:31.973Z,19.3
2022-09-02T21:57:42.367Z,19.2
2022-09-02T22:02:44.822Z,19.1
2022-09-02T22:07:51.216Z,19.1
2022-09-02T22:12:52.024Z,19.0
2022-09-02T22:18:07.041Z,19.0
2022-09-02T22:23:00.373Z,18.9
2022-09-02T22:28:16.773Z,18.9
2022-09-02T22:33:23.146Z,18.8
2022-09-02T22:38:33.540Z,18.7
2022-09-02T22:43:41.659Z,18.7
2022-09-02T22:48:46.412Z,18.6
2022-09-02T22:53:48.778Z,18.6
2022-09-02T22:58:55.183Z,18.5
2022-09-02T23:04:21.800Z,18.5
2022-09-02T23:09:08.140Z,18.4
2022-09-02T23:14:04.613Z,18.4
2022-09-02T23:19:21.234Z,18.3
2022-09-02T23:24:31.623Z,18.2
2022-09-02T23:29:34.011Z,18.2
2022-09-02T23:39:45.265Z,18.1
2022-09-02T23:44:52.583Z,18.0
2022-09-02T23:49:59.020Z,18.0
2022-09-02T23:55:19.564Z,17.9
